Time;durP1;ratioP1;P1;durP2;ratioP2;P2;SDS_P1;SDS_P2;PMS_P1;PMS_P2;Temp;Humidity;BMP_temperature;BMP_pressure;BME280_temperature;BME280_humidity;BME280_pressure;Samples;Min_cycle;Max_cycle;Signal;HPM_P1;HPM_P2
2024/01/13 00:00:35;;;;;;;17.07;7.70;;;;;;;;;;4942846;29;20043;-96
2024/01/13 00:03:01;;;;;;;18.87;9.57;;;2.50;99.90;;;;;;4940130;29;20050;-96
2024/01/13 00:05:45;;;;;;;16.67;6.40;;;2.30;99.90;;;;;;4938037;29;20107;-96
2024/01/13 00:08:14;;;;;;;16.88;9.18;;;4.80;99.90;;;;;;4941936;29;20055;-96
2024/01/13 00:10:46;;;;;;;14.63;6.87;;;2.60;99.90;;;;;;4942699;29;20123;-96
2024/01/13 00:13:11;;;;;;;15.87;5.57;;;1.30;99.90;;;;;;4940432;29;20358;-96
2024/01/13 00:15:40;;;;;;;15.40;6.73;;;3.80;99.90;;;;;;4937837;29;20047;-96
2024/01/13 00:18:09;;;;;;;23.00;12.77;;;2.50;99.90;;;;;;4936999;29;20047;-96
2024/01/13 00:20:38;;;;;;;13.00;4.87;;;2.90;99.90;;;;;;4938997;29;20050;-96
2024/01/13 00:23:10;;;;;;;11.67;5.03;;;4.20;99.90;;;;;;4942784;29;20499;-96
2024/01/13 00:25:36;;;;;;;14.00;5.63;;;3.60;99.90;;;;;;4947606;29;20055;-96
2024/01/13 00:28:20;;;;;;;14.13;5.83;;;2.30;99.90;;;;;;4946627;29;20080;-96
2024/01/13 00:30:45;;;;;;;12.23;5.20;;;2.40;99.90;;;;;;4939062;29;20051;-96
2024/01/13 00:33:17;;;;;;;12.43;4.83;;;3.60;99.90;;;;;;4941708;29;20138;-96
2024/01/13 00:35:52;;;;;;;13.20;4.77;;;2.20;99.90;;;;;;4944024;29;20506;-96
2024/01/13 00:38:26;;;;;;;12.70;4.77;;;3.70;99.90;;;;;;4943774;29;20044;-96
2024/01/13 00:41:05;;;;;;;12.30;4.97;;;2.90;99.90;;;;;;4928617;29;20056;-96
2024/01/13 00:43:43;;;;;;;14.90;5.73;;;0.90;99.90;;;;;;4921546;29;20040;-96
2024/01/13 00:46:15;;;;;;;14.33;4.97;;;2.70;99.90;;;;;;4921580;29;20040;-96
2024/01/13 00:48:53;;;;;;;12.23;4.67;;;2.80;99.90;;;;;;4926406;29;20044;-96
2024/01/13 00:51:19;;;;;;;14.33;4.83;;;1.50;99.90;;;;;;4925437;29;20044;-95
2024/01/13 00:54:21;;;;;;;11.00;4.17;;;3.10;99.90;;;;;;4923033;29;20060;-96
2024/01/13 00:56:59;;;;;;;12.50;4.37;;;2.90;99.90;;;;;;4927363;29;20110;-96
2024/01/13 00:59:25;;;;;;;13.20;5.00;;;3.60;99.90;;;;;;4928908;29;20135;-96
2024/01/13 01:02:00;;;;;;;13.87;4.53;;;3.50;99.90;;;;;;4922452;29;20202;-96
2024/01/13 01:04:32;;;;;;;13.20;4.60;;;2.30;99.90;;;;;;4922206;29;20052;-96
2024/01/13 01:07:07;;;;;;;11.90;4.27;;;2.60;99.90;;;;;;4921996;29;20076;-96
2024/01/13 01:09:39;;;;;;;11.33;3.80;;;3.30;99.90;;;;;;4927708;29;20036;-96
2024/01/13 01:12:25;;;;;;;9.70;3.70;;;4.00;99.90;;;;;;4940477;29;20058;-96
2024/01/13 01:15:06;;;;;;;11.63;3.53;;;2.60;99.90;;;;;;4943904;29;20137;-96
2024/01/13 01:17:38;;;;;;;12.07;3.80;;;2.30;99.90;;;;;;4941961;29;20529;-96
2024/01/13 01:20:16;;;;;;;11.83;3.80;;;4.20;99.90;;;;;;4946248;29;20075;-96
2024/01/13 01:22:54;;;;;;;11.90;3.87;;;2.00;99.90;;;;;;4942877;29;20058;-94
2024/01/13 01:25:29;;;;;;;14.40;4.17;;;2.60;99.90;;;;;;4942927;29;20048;-96
2024/01/13 01:28:04;;;;;;;10.83;3.80;;;4.20;99.90;;;;;;4943123;29;20083;-94
2024/01/13 01:30:39;;;;;;;12.40;4.00;;;2.40;99.90;;;;;;4942385;29;20044;-96
2024/01/13 01:33:11;;;;;;;12.37;4.20;;;3.40;99.90;;;;;;4941714;29;20555;-95
2024/01/13 01:36:02;;;;;;;12.37;4.10;;;2.80;99.90;;;;;;4941953;29;20064;-95
2024/01/13 01:38:29;;;;;;;13.77;3.90;;;2.20;99.90;;;;;;4940142;29;20082;-95
2024/01/13 01:40:55;;;;;;;12.57;4.67;;;3.50;99.90;;;;;;4940886;29;20051;-95
2024/01/13 01:43:22;;;;;;;13.47;4.67;;;2.00;99.90;;;;;;4940639;29;20040;-95
2024/01/13 01:46:08;;;;;;;14.80;5.10;;;2.10;99.90;;;;;;4940104;29;20055;-96
2024/01/13 01:48:58;;;;;;;14.97;4.83;;;3.40;99.90;;;;;;4939299;29;20048;-95
2024/01/13 01:51:38;;;;;;;15.17;5.17;;;3.00;99.90;;;;;;4939297;29;20511;-96
2024/01/13 01:54:23;;;;;;;17.87;5.50;;;2.10;99.90;;;;;;4942562;29;20048;-94
2024/01/13 01:56:49;;;;;;;15.00;5.10;;;3.20;99.90;;;;;;4945483;29;20039;-94
2024/01/13 01:59:26;;;;;;;12.93;4.40;;;1.70;99.90;;;;;;4940364;29;20082;-95
2024/01/13 02:02:06;;;;;;;14.50;4.67;;;2.70;99.90;;;;;;4941244;29;20047;-96
2024/01/13 02:04:52;;;;;;;13.90;4.70;;;2.70;99.90;;;;;;4950897;29;20062;-95
2024/01/13 02:10:19;;;;;;;12.17;4.13;;;2.50;99.90;;;;;;4943024;29;20052;-95
2024/01/13 02:13:00;;;;;;;13.60;4.10;;;3.00;99.90;;;;;;4940645;29;20138;-95
2024/01/13 02:15:44;;;;;;;12.07;3.80;;;4.50;99.90;;;;;;4939813;29;20044;-95
2024/01/13 02:18:10;;;;;;;12.30;3.92;;;3.50;99.90;;;;;;4939287;29;20051;-95
2024/01/13 02:20:35;;;;;;;12.93;3.80;;;3.80;99.90;;;;;;4939451;29;20051;-95
2024/01/13 02:23:01;;;;;;;11.73;3.63;;;2.70;99.90;;;;;;4938815;29;20138;-95
2024/01/13 02:25:42;;;;;;;14.47;3.57;;;2.50;99.90;;;;;;4938427;29;20404;-95
2024/01/13 02:28:22;;;;;;;12.00;3.80;;;2.40;99.90;;;;;;4940294;29;20043;-95
2024/01/13 02:33:52;;;;;;;10.43;3.70;;;2.40;99.90;;;;;;4939541;29;20105;-94
2024/01/13 02:36:43;;;;;;;11.43;3.87;;;4.50;99.90;;;;;;4942023;29;20051;-94
2024/01/13 02:39:08;;;;;;;11.33;4.00;;;4.10;99.90;;;;;;4961628;28;20085;-95
2024/01/13 02:41:34;;;;;;;11.17;4.07;;;3.20;99.90;;;;;;4942478;29;20055;-95
2024/01/13 02:44:11;;;;;;;14.50;4.50;;;2.10;99.90;;;;;;4956258;28;20090;-95
2024/01/13 02:46:37;;;;;;;14.63;4.57;;;4.10;99.90;;;;;;4941148;29;20047;-95
2024/01/13 02:49:19;;;;;;;14.50;4.70;;;3.30;99.90;;;;;;4956660;28;20050;-94
2024/01/13 02:52:02;;;;;;;14.00;4.53;;;4.30;99.90;;;;;;4940924;29;20051;-95
2024/01/13 02:54:40;;;;;;;13.73;4.18;;;2.40;99.90;;;;;;4940993;29;20047;-96
2024/01/13 02:57:15;;;;;;;11.40;4.57;;;2.20;99.90;;;;;;4941905;29;20043;-95
2024/01/13 02:59:59;;;;;;;12.87;4.70;;;3.70;99.90;;;;;;4940582;29;20047;-96
2024/01/13 03:02:25;;;;;;;;;;;2.50;99.90;;;;;;4940878;29;20142;-95
2024/01/13 03:04:50;;;;;;;13.93;4.87;;;3.80;99.90;;;;;;4939690;29;20029;-94
2024/01/13 03:07:16;;;;;;;14.63;5.77;;;2.70;99.90;;;;;;4940177;29;20043;-95
2024/01/13 03:09:48;;;;;;;15.07;5.40;;;2.40;99.90;;;;;;4941165;29;20043;-95
2024/01/13 03:12:13;;;;;;;15.50;5.03;;;3.50;99.90;;;;;;4941326;29;20050;-94
2024/01/13 03:15:20;;;;;;;12.97;5.07;;;2.60;99.90;;;;;;4900225;29;20056;-94
2024/01/13 03:17:49;;;;;;;12.63;4.80;;;2.70;99.90;;;;;;4928700;29;20083;-94
2024/01/13 03:20:15;;;;;;;18.10;5.50;;;4.70;99.90;;;;;;4937153;29;20114;-94
2024/01/13 03:23:11;;;;;;;;;;;2.60;99.90;;;;;;4942496;29;20058;-94
2024/01/13 03:25:46;;;;;;;14.47;5.27;;;2.80;99.90;;;;;;4940408;29;19926;-95
2024/01/13 03:28:30;;;;;;;13.23;4.53;;;3.00;99.90;;;;;;4939435;28;20055;-94
2024/01/13 03:31:08;;;;;;;14.48;4.05;;;2.80;99.90;;;;;;4939892;29;20440;-93
2024/01/13 03:33:40;;;;;;;12.27;4.00;;;2.60;99.90;;;;;;4940437;29;20063;-95
2024/01/13 03:36:24;;;;;;;14.67;4.40;;;2.60;99.90;;;;;;4940131;29;20055;-94
2024/01/13 03:39:10;;;;;;;14.00;4.53;;;3.60;99.90;;;;;;4945983;29;20051;-96
2024/01/13 03:41:44;;;;;;;12.70;4.20;;;2.50;99.90;;;;;;4941403;29;20051;-95
2024/01/13 03:44:10;;;;;;;11.27;3.50;;;3.40;99.90;;;;;;4939538;29;20054;-95
2024/01/13 03:46:42;;;;;;;12.17;4.50;;;2.50;99.90;;;;;;4939546;29;20043;-94
2024/01/13 03:49:17;;;;;;;12.67;4.03;;;4.00;99.90;;;;;;4939669;29;20039;-95
2024/01/13 03:51:58;;;;;;;14.00;4.20;;;3.50;99.90;;;;;;4939390;29;20050;-96
2024/01/13 03:54:38;;;;;;;11.53;4.00;;;2.20;99.90;;;;;;4939480;29;20046;-95
2024/01/13 03:57:07;;;;;;;13.93;4.27;;;2.10;99.90;;;;;;4938826;29;20055;-94
2024/01/13 03:59:48;;;;;;;12.80;4.50;;;4.60;99.90;;;;;;4940244;29;20130;-94
2024/01/13 04:02:14;;;;;;;12.57;4.10;;;3.00;99.90;;;;;;4938987;29;20510;-95
2024/01/13 04:04:52;;;;;;;12.43;4.60;;;3.30;99.90;;;;;;4939514;29;20229;-94
2024/01/13 04:07:27;;;;;;;12.17;4.53;;;2.10;99.90;;;;;;4939757;29;20090;-94
2024/01/13 04:10:08;;;;;;;13.53;4.90;;;4.50;99.90;;;;;;4939063;29;20050;-94
2024/01/13 04:12:52;;;;;;;15.30;5.30;;;2.70;99.90;;;;;;4939368;29;20043;-94
2024/01/13 04:15:18;;;;;;;;;;;2.10;99.90;;;;;;4940269;29;20039;-94
2024/01/13 04:18:02;;;;;;;12.15;4.55;;;2.20;99.90;;;;;;4957252;29;20373;-94
2024/01/13 04:20:35;;;;;;;14.87;4.97;;;2.60;99.90;;;;;;4947695;29;20031;-96
2024/01/13 04:23:01;;;;;;;12.23;4.05;;;3.00;99.90;;;;;;4945440;28;20051;-95
2024/01/13 04:25:49;;;;;;;14.67;4.23;;;2.70;99.90;;;;;;4939438;29;20574;-95
2024/01/13 04:28:27;;;;;;;14.47;4.67;;;2.50;99.90;;;;;;4939992;29;20047;-95
2024/01/13 04:30:53;;;;;;;14.03;4.93;;;2.50;99.90;;;;;;4938603;29;20043;-94
2024/01/13 04:33:32;;;;;;;14.83;4.97;;;2.60;99.90;;;;;;4940354;29;20043;-95
2024/01/13 04:35:57;;;;;;;14.53;4.80;;;4.80;99.90;;;;;;4935226;29;20063;-94
2024/01/13 04:38:29;;;;;;;12.43;4.47;;;4.70;99.90;;;;;;4935550;29;20200;-94
2024/01/13 04:41:13;;;;;;;12.50;4.40;;;4.60;99.90;;;;;;4934997;29;20051;-93
2024/01/13 04:43:54;;;;;;;;;;;2.70;99.90;;;;;;4936191;29;20051;-93
2024/01/13 04:46:20;;;;;;;14.73;4.10;;;3.80;99.90;;;;;;4935599;29;19922;-94
2024/01/13 04:48:55;;;;;;;13.80;3.97;;;3.70;99.90;;;;;;4935506;29;20055;-94
2024/01/13 04:51:20;;;;;;;13.50;4.23;;;2.80;99.90;;;;;;4935754;29;20510;-94
2024/01/13 04:53:49;;;;;;;13.10;4.43;;;2.70;99.90;;;;;;4938231;29;20047;-93
2024/01/13 04:56:24;;;;;;;12.27;4.60;;;2.50;99.90;;;;;;4935796;29;20043;-94
2024/01/13 04:59:06;;;;;;;13.87;4.67;;;3.70;99.90;;;;;;4936384;29;20091;-94
2024/01/13 05:01:40;;;;;;;12.63;4.30;;;2.60;99.90;;;;;;4935658;29;20130;-95
2024/01/13 05:04:15;;;;;;;13.03;4.40;;;2.30;99.90;;;;;;4935015;29;20043;-94
2024/01/13 05:06:41;;;;;;;12.90;3.90;;;4.10;99.90;;;;;;4934795;29;20048;-94
2024/01/13 05:09:13;;;;;;;13.10;4.20;;;2.30;99.90;;;;;;4935046;29;20135;-95
2024/01/13 05:11:57;;;;;;;14.57;4.07;;;2.70;99.90;;;;;;4934984;29;20050;-93
2024/01/13 05:14:34;;;;;;;11.55;4.20;;;2.80;99.90;;;;;;4935344;29;20051;-94
2024/01/13 05:17:12;;;;;;;15.20;4.53;;;2.90;99.90;;;;;;4935077;29;20506;-94
2024/01/13 05:19:47;;;;;;;16.40;4.33;;;2.70;99.90;;;;;;4935143;29;20047;-94
2024/01/13 05:22:12;;;;;;;12.53;3.97;;;2.40;99.90;;;;;;4937916;29;20400;-93
2024/01/13 05:24:46;;;;;;;18.07;4.37;;;2.30;99.90;;;;;;4936893;29;20043;-94
2024/01/13 05:27:14;;;;;;;12.67;4.10;;;2.50;99.90;;;;;;4937556;29;20206;-93
2024/01/13 05:29:51;;;;;;;14.27;4.60;;;3.70;99.90;;;;;;4935455;29;20043;-93
2024/01/13 05:32:32;;;;;;;13.23;4.80;;;2.70;99.90;;;;;;4934810;29;20404;-92
2024/01/13 05:35:16;;;;;;;15.77;5.53;;;3.70;99.90;;;;;;4968328;23;20047;-93
2024/01/13 05:38:03;;;;;;;;;;;3.60;99.90;;;;;;4938555;29;20488;-94
2024/01/13 05:40:29;;;;;;;17.63;5.43;;;2.20;99.90;;;;;;4953683;29;19929;-93
2024/01/13 05:43:03;;;;;;;15.43;5.00;;;2.30;99.90;;;;;;4934676;29;20051;-94
2024/01/13 05:45:45;;;;;;;;;;;2.20;99.90;;;;;;4936552;29;20035;-94
2024/01/13 05:48:11;;;;;;;13.17;4.27;;;2.70;99.90;;;;;;4934323;29;19922;-94
2024/01/13 05:50:42;;;;;;;11.30;3.70;;;2.50;99.90;;;;;;4937563;29;20051;-94
2024/01/13 05:53:17;;;;;;;12.57;3.63;;;2.20;99.90;;;;;;4936127;29;20385;-94
2024/01/13 05:55:55;;;;;;;12.40;3.80;;;2.70;99.90;;;;;;4938332;29;20499;-94
2024/01/13 05:58:30;;;;;;;10.67;3.53;;;2.30;99.90;;;;;;4938577;29;20047;-94
2024/01/13 06:00:56;;;;;;;11.13;3.33;;;2.10;99.90;;;;;;4937508;29;20051;-94
2024/01/13 06:03:22;;;;;;;11.40;3.50;;;2.40;99.90;;;;;;4938223;29;20087;-93
2024/01/13 06:06:00;;;;;;;13.83;3.40;;;2.20;99.90;;;;;;4937526;29;20056;-93
2024/01/13 06:08:41;;;;;;;13.27;3.40;;;2.60;99.90;;;;;;4938754;29;20062;-94
2024/01/13 06:11:08;;;;;;;12.00;3.70;;;4.20;99.90;;;;;;4930130;23;20040;-94
2024/01/13 06:13:33;;;;;;;10.33;3.13;;;2.40;99.90;;;;;;4902114;29;20234;-94
2024/01/13 06:15:59;;;;;;;11.90;3.50;;;2.40;99.90;;;;;;4902208;29;20183;-93
2024/01/13 06:18:24;;;;;;;12.23;3.70;;;2.40;99.90;;;;;;4903550;29;20051;-94
2024/01/13 06:20:50;;;;;;;12.53;3.80;;;2.40;99.90;;;;;;4903460;29;20060;-94
2024/01/13 06:23:16;;;;;;;11.50;3.70;;;2.70;99.90;;;;;;4902039;29;20143;-94
2024/01/13 06:25:42;;;;;;;11.80;3.67;;;2.40;99.90;;;;;;4902662;29;20044;-94
2024/01/13 06:28:08;;;;;;;16.17;3.90;;;2.30;99.90;;;;;;4903230;29;20084;-93
2024/01/13 06:30:33;;;;;;;11.30;3.40;;;2.30;99.90;;;;;;4903642;29;20071;-93
2024/01/13 06:32:59;;;;;;;10.73;3.10;;;2.50;99.90;;;;;;4907439;29;20119;-93
2024/01/13 06:35:25;;;;;;;10.67;3.37;;;3.30;99.90;;;;;;4903696;29;20046;-92
2024/01/13 06:37:51;;;;;;;11.13;3.37;;;1.50;99.90;;;;;;4902116;29;20480;-93
2024/01/13 06:40:17;;;;;;;14.00;3.47;;;2.40;99.90;;;;;;4902252;29;20040;-93
2024/01/13 06:42:43;;;;;;;10.37;3.37;;;2.40;99.90;;;;;;4898360;29;20044;-93
2024/01/13 06:45:09;;;;;;;10.93;3.30;;;2.40;99.90;;;;;;4897582;29;20074;-94
2024/01/13 06:47:35;;;;;;;10.50;3.70;;;2.40;99.90;;;;;;4903299;29;20059;-93
2024/01/13 06:50:00;;;;;;;17.37;3.90;;;2.40;99.90;;;;;;4902194;29;20051;-93
2024/01/13 06:52:26;;;;;;;9.07;2.60;;;2.30;99.90;;;;;;4902109;29;20052;-93
2024/01/13 06:54:51;;;;;;;9.33;2.70;;;2.30;99.90;;;;;;4902164;29;20417;-93
2024/01/13 06:57:17;;;;;;;9.97;2.60;;;2.30;99.90;;;;;;4901492;29;20099;-93
2024/01/13 06:59:46;;;;;;;9.83;2.70;;;2.70;99.90;;;;;;4904306;29;20087;-92
2024/01/13 07:02:12;;;;;;;9.10;2.90;;;3.00;99.90;;;;;;4903871;29;20570;-94
2024/01/13 07:04:38;;;;;;;9.23;3.13;;;2.30;99.90;;;;;;4904829;29;20123;-88
2024/01/13 07:07:05;;;;;;;8.40;2.30;;;2.30;99.90;;;;;;4901750;29;20044;-87
2024/01/13 07:09:31;;;;;;;8.87;2.93;;;2.30;99.90;;;;;;4900932;29;20075;-88
2024/01/13 07:11:57;;;;;;;8.13;3.07;;;2.30;99.90;;;;;;4899729;29;20131;-90
2024/01/13 07:14:22;;;;;;;9.77;3.13;;;2.30;99.90;;;;;;4901006;29;20536;-88
2024/01/13 07:16:48;;;;;;;11.00;3.17;;;2.30;99.90;;;;;;4900689;29;20047;-88
2024/01/13 07:19:15;;;;;;;11.53;3.00;;;2.30;99.90;;;;;;4900449;29;20048;-89
2024/01/13 07:21:42;;;;;;;13.13;4.13;;;3.20;99.90;;;;;;4901647;29;20048;-88
2024/01/13 07:24:11;;;;;;;16.13;4.30;;;2.40;99.90;;;;;;4904597;29;20056;-87
2024/01/13 07:26:41;;;;;;;20.10;5.30;;;2.40;99.90;;;;;;4918891;29;20087;-88
2024/01/13 07:29:07;;;;;;;18.43;5.83;;;2.40;99.90;;;;;;4919364;29;20052;-88
2024/01/13 07:31:33;;;;;;;17.93;5.47;;;3.20;99.90;;;;;;4919628;29;20086;-88
2024/01/13 07:34:00;;;;;;;15.30;4.93;;;2.90;99.90;;;;;;4919213;29;20043;-90
2024/01/13 07:36:25;;;;;;;19.77;5.63;;;2.60;99.90;;;;;;4919741;29;20079;-89
2024/01/13 07:38:51;;;;;;;19.53;5.50;;;2.50;99.90;;;;;;4920539;29;20071;-88
2024/01/13 07:41:17;;;;;;;20.33;5.37;;;2.60;99.90;;;;;;4903832;29;20048;-89
2024/01/13 07:43:45;;;;;;;20.03;5.20;;;3.40;99.90;;;;;;4901329;29;20044;-89
2024/01/13 07:46:12;;;;;;;14.40;5.00;;;2.50;99.90;;;;;;4899720;29;20096;-87
2024/01/13 07:48:38;;;;;;;14.40;5.23;;;2.50;99.90;;;;;;4898084;29;20040;-87
2024/01/13 07:51:04;;;;;;;15.07;5.23;;;3.90;99.90;;;;;;4900555;29;20048;-88
2024/01/13 07:53:29;;;;;;;26.10;11.33;;;2.60;99.90;;;;;;4900606;29;20126;-88
2024/01/13 07:55:55;;;;;;;28.47;11.43;;;3.70;99.90;;;;;;4901059;29;20461;-86
2024/01/13 07:58:21;;;;;;;23.23;11.50;;;2.50;99.90;;;;;;4900878;29;20046;-88
2024/01/13 08:00:49;;;;;;;17.60;6.50;;;2.60;99.90;;;;;;4900921;29;20082;-89
2024/01/13 08:03:14;;;;;;;42.37;24.97;;;2.60;99.90;;;;;;4900176;29;20430;-89
2024/01/13 08:05:40;;;;;;;52.97;29.53;;;3.80;99.90;;;;;;4899741;29;20041;-89
2024/01/13 08:08:07;;;;;;;22.37;13.47;;;3.20;99.90;;;;;;4898743;29;20052;-88
2024/01/13 08:10:35;;;;;;;29.60;16.97;;;3.20;99.90;;;;;;4899985;29;20044;-87
2024/01/13 08:13:01;;;;;;;21.00;11.07;;;2.60;99.90;;;;;;4916425;29;20048;-89
2024/01/13 08:15:27;;;;;;;20.50;9.93;;;3.50;99.90;;;;;;4898369;29;20420;-89
2024/01/13 08:17:53;;;;;;;17.40;7.40;;;2.70;99.90;;;;;;4899751;29;20060;-89
2024/01/13 08:20:20;;;;;;;15.63;6.67;;;2.80;99.90;;;;;;4899321;29;20489;-90
2024/01/13 08:22:48;;;;;;;13.10;5.77;;;2.90;99.90;;;;;;4898468;29;20084;-89
2024/01/13 08:25:14;;;;;;;13.53;5.23;;;2.80;99.90;;;;;;4899181;29;20135;-89
2024/01/13 08:27:40;;;;;;;17.97;9.10;;;2.90;99.90;;;;;;4899560;29;20135;-88
2024/01/13 08:30:06;;;;;;;15.87;8.03;;;2.80;99.90;;;;;;4898355;29;20508;-89
2024/01/13 08:32:32;;;;;;;15.40;7.67;;;2.80;99.90;;;;;;4899762;29;20102;-89
2024/01/13 08:34:58;;;;;;;15.10;7.10;;;2.80;99.90;;;;;;4895889;29;20052;-87
2024/01/13 08:37:23;;;;;;;19.40;10.20;;;2.90;99.90;;;;;;4898471;29;20087;-87
2024/01/13 08:39:49;;;;;;;16.93;7.60;;;2.90;99.90;;;;;;4911323;29;20078;-87
2024/01/13 08:42:15;;;;;;;15.37;6.87;;;2.80;99.90;;;;;;4917175;29;20044;-87
2024/01/13 08:44:40;;;;;;;15.33;5.97;;;2.90;99.90;;;;;;4918200;29;20044;-87
2024/01/13 08:47:06;;;;;;;16.47;7.70;;;2.90;99.90;;;;;;4917633;29;20432;-88
2024/01/13 08:49:31;;;;;;;18.07;8.67;;;2.90;99.90;;;;;;4917501;29;20047;-88
2024/01/13 08:51:57;;;;;;;14.47;7.20;;;2.90;99.90;;;;;;4917530;29;20139;-88
2024/01/13 08:54:23;;;;;;;16.60;7.70;;;3.00;99.90;;;;;;4917952;29;20067;-87
2024/01/13 08:56:49;;;;;;;19.90;9.87;;;2.90;99.90;;;;;;4918285;29;20044;-91
2024/01/13 08:59:15;;;;;;;15.97;5.73;;;3.00;99.90;;;;;;4918905;29;20050;-92
2024/01/13 09:01:41;;;;;;;16.00;6.80;;;2.90;99.90;;;;;;4906022;29;20048;-92
2024/01/13 09:04:10;;;;;;;16.73;5.90;;;3.00;99.90;;;;;;4899121;29;20176;-92
2024/01/13 09:06:36;;;;;;;16.97;7.70;;;3.00;99.90;;;;;;4897035;29;20047;-91
2024/01/13 09:09:02;;;;;;;17.67;8.00;;;3.00;99.90;;;;;;4901706;29;20047;-91
2024/01/13 09:11:28;;;;;;;22.57;13.67;;;3.00;99.90;;;;;;4898574;29;20059;-93
2024/01/13 09:13:54;;;;;;;24.70;13.47;;;4.10;99.90;;;;;;4901656;29;20054;-95
2024/01/13 09:16:20;;;;;;;20.83;9.23;;;3.10;99.90;;;;;;4897162;29;20044;-91
2024/01/13 09:18:45;;;;;;;26.53;10.63;;;3.00;99.90;;;;;;4899316;29;20055;-91
2024/01/13 09:21:12;;;;;;;20.37;7.80;;;3.10;99.90;;;;;;4904977;29;20539;-91
2024/01/13 09:23:39;;;;;;;24.60;11.37;;;3.10;99.90;;;;;;4900149;29;20107;-92
2024/01/13 09:26:05;;;;;;;25.63;10.50;;;3.10;99.90;;;;;;4917662;29;20040;-92
2024/01/13 09:28:32;;;;;;;30.00;11.97;;;3.10;99.90;;;;;;4921432;29;20043;-90
2024/01/13 09:30:58;;;;;;;25.00;10.77;;;3.10;99.90;;;;;;4921406;29;20051;-91
2024/01/13 09:33:24;;;;;;;30.00;13.13;;;3.10;99.90;;;;;;4921104;29;20044;-90
2024/01/13 09:35:50;;;;;;;30.53;14.77;;;3.10;99.90;;;;;;4921251;29;20040;-90
2024/01/13 09:38:15;;;;;;;39.23;15.37;;;3.10;99.90;;;;;;4921354;29;20044;-90
2024/01/13 09:40:41;;;;;;;30.73;12.03;;;3.10;99.90;;;;;;4921318;29;20048;-92
2024/01/13 09:43:31;;;;;;;33.60;14.20;;;3.20;99.90;;;;;;4921020;29;20492;-90
2024/01/13 09:45:57;;;;;;;33.87;14.63;;;3.10;99.90;;;;;;4920721;29;20055;-90
2024/01/13 09:48:23;;;;;;;35.50;13.57;;;3.10;99.90;;;;;;4921703;29;20496;-91
2024/01/13 09:50:52;;;;;;;39.87;16.53;;;3.10;99.90;;;;;;4913327;29;20067;-92
2024/01/13 09:53:31;;;;;;;41.13;18.83;;;3.10;99.90;;;;;;4902012;29;20095;-91
2024/01/13 09:56:12;;;;;;;42.60;15.37;;;3.20;99.90;;;;;;4903044;29;20441;-93
2024/01/13 09:58:38;;;;;;;40.37;17.17;;;3.20;99.90;;;;;;4901931;29;20587;-91
2024/01/13 10:01:07;;;;;;;47.20;18.70;;;3.10;99.90;;;;;;4900469;29;20051;-90
2024/01/13 10:03:32;;;;;;;48.73;18.70;;;3.20;99.90;;;;;;4902583;29;20481;-91
2024/01/13 10:05:59;;;;;;;50.40;18.47;;;3.20;99.90;;;;;;4902657;29;20068;-93
2024/01/13 10:08:32;;;;;;;46.90;18.03;;;3.20;99.90;;;;;;4902619;29;20044;-92
2024/01/13 10:11:02;;;;;;;47.42;18.50;;;3.20;99.90;;;;;;4905455;29;20068;-94
2024/01/13 10:13:29;;;;;;;65.30;21.47;;;3.50;99.90;;;;;;4902464;29;20396;-90
2024/01/13 10:15:55;;;;;;;51.67;19.63;;;3.30;99.90;;;;;;4901237;29;20055;-89
2024/01/13 10:18:22;;;;;;;51.53;21.67;;;3.20;99.90;;;;;;4902328;29;20055;-91
2024/01/13 10:20:49;;;;;;;53.07;20.10;;;3.30;99.90;;;;;;4901101;29;20119;-89
2024/01/13 10:23:16;;;;;;;52.07;20.07;;;3.30;99.90;;;;;;4901514;29;20076;-89
2024/01/13 10:25:41;;;;;;;51.60;20.03;;;3.30;99.90;;;;;;4902016;29;20048;-89
2024/01/13 10:28:07;;;;;;;47.90;19.10;;;3.20;99.90;;;;;;4901263;29;20535;-89
2024/01/13 10:30:33;;;;;;;51.20;20.53;;;3.20;99.90;;;;;;4901966;29;20047;-89
2024/01/13 10:32:59;;;;;;;53.00;20.83;;;3.20;99.90;;;;;;4902293;29;20044;-91
2024/01/13 10:35:27;;;;;;;45.73;19.83;;;3.20;99.90;;;;;;4899963;29;20043;-90
2024/01/13 10:37:56;;;;;;;53.13;21.13;;;3.20;99.90;;;;;;4901396;29;20047;-88
2024/01/13 10:40:21;;;;;;;55.17;20.50;;;3.30;99.90;;;;;;4917668;23;20051;-91
2024/01/13 10:42:50;;;;;;;53.23;20.43;;;3.20;99.90;;;;;;4906275;29;20051;-92
2024/01/13 10:45:19;;;;;;;56.17;23.03;;;3.30;99.90;;;;;;4908713;29;20139;-91
2024/01/13 10:47:52;;;;;;;51.77;20.87;;;3.30;99.90;;;;;;4913108;23;20057;-90
2024/01/13 10:50:18;;;;;;;52.97;22.30;;;3.30;99.90;;;;;;4906302;29;20044;-89
2024/01/13 10:52:55;;;;;;;51.37;20.70;;;3.30;99.90;;;;;;4932773;29;20048;-89
2024/01/13 10:55:22;;;;;;;53.63;23.17;;;3.30;99.90;;;;;;4901409;29;20099;-89
2024/01/13 10:57:47;;;;;;;50.00;23.40;;;3.30;99.90;;;;;;4900525;29;20051;-88
2024/01/13 11:00:14;;;;;;;54.33;25.77;;;3.30;99.90;;;;;;4901021;29;20052;-90
2024/01/13 11:02:42;;;;;;;57.37;27.23;;;3.30;99.90;;;;;;4901472;29;20488;-90
2024/01/13 11:05:09;;;;;;;54.87;27.40;;;3.30;99.90;;;;;;4901127;29;20083;-90
2024/01/13 11:07:35;;;;;;;48.77;22.97;;;3.30;99.90;;;;;;4900472;29;20535;-90
2024/01/13 11:10:03;;;;;;;52.23;22.47;;;3.40;99.90;;;;;;4901109;29;20036;-92
2024/01/13 11:12:55;;;;;;;52.20;23.00;;;3.40;99.90;;;;;;4900616;29;20056;-91
2024/01/13 11:15:25;;;;;;;51.67;21.97;;;3.40;99.90;;;;;;4900823;29;20526;-92
2024/01/13 11:17:51;;;;;;;46.63;22.30;;;3.30;99.90;;;;;;4900227;29;20052;-91
2024/01/13 11:20:20;;;;;;;44.47;21.43;;;3.30;99.90;;;;;;4901328;29;20191;-90
2024/01/13 11:22:59;;;;;;;84.77;42.83;;;3.30;99.90;;;;;;4901545;29;20040;-90
2024/01/13 11:25:26;;;;;;;44.40;20.60;;;4.20;99.90;;;;;;4900209;29;20051;-90
2024/01/13 11:28:01;;;;;;;46.40;21.90;;;3.40;99.90;;;;;;4901295;29;20048;-92
2024/01/13 11:30:37;;;;;;;47.13;21.03;;;3.40;99.90;;;;;;4900550;29;20536;-89
2024/01/13 11:33:10;;;;;;;45.73;20.70;;;3.30;99.90;;;;;;4899441;29;20040;-89
2024/01/13 11:35:37;;;;;;;41.77;19.97;;;3.30;99.90;;;;;;4900497;29;20087;-89
2024/01/13 11:38:06;;;;;;;49.83;22.50;;;3.30;99.90;;;;;;4899883;29;20056;-89
2024/01/13 11:40:32;;;;;;;52.77;23.90;;;3.30;99.90;;;;;;4900415;29;20079;-90
2024/01/13 11:43:03;;;;;;;46.93;21.20;;;3.30;99.90;;;;;;4900102;29;20048;-89
2024/01/13 11:45:42;;;;;;;46.07;21.83;;;3.30;99.90;;;;;;4899939;29;20409;-89
2024/01/13 11:48:29;;;;;;;49.93;24.47;;;3.30;99.90;;;;;;4900001;29;20087;-91
2024/01/13 11:50:55;;;;;;;61.70;29.30;;;3.30;99.90;;;;;;4899025;29;20056;-91
2024/01/13 11:53:39;;;;;;;48.70;22.77;;;3.30;99.90;;;;;;4900088;29;20044;-93
2024/01/13 11:56:06;;;;;;;53.33;26.50;;;3.30;99.90;;;;;;4900471;29;20055;-91
2024/01/13 11:58:36;;;;;;;56.57;25.77;;;3.30;99.90;;;;;;4900563;29;20103;-92
2024/01/13 12:01:11;;;;;;;53.33;23.60;;;3.30;99.90;;;;;;4897845;29;20114;-90
2024/01/13 12:03:42;;;;;;;58.13;25.13;;;3.30;99.90;;;;;;4900647;29;20059;-89
2024/01/13 12:06:09;;;;;;;57.37;29.53;;;3.40;99.90;;;;;;4931482;29;20044;-89
2024/01/13 12:08:35;;;;;;;56.47;27.60;;;2.40;99.90;;;;;;4931124;29;20087;-89
2024/01/13 12:11:01;;;;;;;51.73;21.83;;;3.40;99.90;;;;;;4899886;29;20078;-90
2024/01/13 12:13:26;;;;;;;53.37;23.13;;;3.40;99.90;;;;;;4898966;29;20052;-89
2024/01/13 12:16:03;;;;;;;57.97;24.03;;;3.50;99.90;;;;;;4899374;29;20397;-85
2024/01/13 12:18:28;;;;;;;52.87;24.70;;;3.50;99.90;;;;;;4932077;29;20052;-89
2024/01/13 12:21:00;;;;;;;62.27;29.83;;;3.50;99.90;;;;;;4899584;29;20048;-92
2024/01/13 12:23:27;;;;;;;59.70;29.67;;;3.50;99.90;;;;;;4933992;29;20040;-93
2024/01/13 12:25:53;;;;;;;56.67;24.63;;;3.50;99.90;;;;;;4906533;29;20044;-96
2024/01/13 12:28:22;;;;;;;60.00;26.00;;;3.60;99.90;;;;;;4903750;29;20052;-90
2024/01/13 12:30:53;;;;;;;52.43;23.53;;;3.50;99.90;;;;;;4899268;29;20050;-87
2024/01/13 12:33:18;;;;;;;55.07;25.17;;;3.50;99.90;;;;;;4899904;29;20083;-90
2024/01/13 12:35:45;;;;;;;55.67;23.50;;;2.30;99.90;;;;;;4899422;29;20091;-89
2024/01/13 12:38:12;;;;;;;59.97;25.77;;;3.50;99.90;;;;;;4900181;29;20362;-90
2024/01/13 12:40:38;;;;;;;52.43;22.03;;;3.60;99.90;;;;;;4899604;29;20048;-90
2024/01/13 12:43:04;;;;;;;58.50;27.93;;;3.60;99.90;;;;;;4898513;29;20049;-87
2024/01/13 12:45:32;;;;;;;72.10;34.90;;;3.60;99.90;;;;;;4899645;29;20043;-90
2024/01/13 12:47:58;;;;;;;52.07;21.93;;;3.60;99.90;;;;;;4938323;29;20056;-89
2024/01/13 12:50:23;;;;;;;50.97;26.67;;;3.60;99.90;;;;;;4900564;29;20489;-92
2024/01/13 12:52:49;;;;;;;55.83;26.77;;;3.60;99.90;;;;;;4900284;29;20044;-91
2024/01/13 12:55:16;;;;;;;53.43;25.43;;;4.30;99.90;;;;;;4898705;29;20404;-91
2024/01/13 12:57:42;;;;;;;43.83;21.17;;;3.60;99.90;;;;;;4899230;29;20052;-89
2024/01/13 13:00:08;;;;;;;48.90;22.47;;;3.60;99.90;;;;;;4898972;29;20055;-92
2024/01/13 13:02:34;;;;;;;50.10;21.90;;;3.60;99.90;;;;;;4898698;29;20076;-94
2024/01/13 13:05:04;;;;;;;52.27;23.50;;;3.60;99.90;;;;;;4903621;29;20152;-94
2024/01/13 13:07:31;;;;;;;44.83;22.23;;;3.60;99.90;;;;;;4922930;29;20106;-91
2024/01/13 13:09:57;;;;;;;50.47;26.53;;;3.60;99.90;;;;;;4920543;29;20044;-91